sensor_id;sensor_type;location;lat;lon;timestamp;P1;durP1;ratioP1;P2;durP2;ratioP2
4186;SDS011;2107;52.306;10.484;2023-09-19T00:02:20;0.00;;;0.00;;
4186;SDS011;2107;52.306;10.484;2023-09-19T00:04:47;0.00;;;0.00;;
4186;SDS011;2107;52.306;10.484;2023-09-19T00:07:15;0.00;;;0.00;;
4186;SDS011;2107;52.306;10.484;2023-09-19T00:09:42;0.00;;;0.00;;
4186;SDS011;2107;52.306;10.484;2023-09-19T00:12:09;0.00;;;0.00;;
4186;SDS011;2107;52.306;10.484;2023-09-19T00:14:38;0.00;;;0.00;;
4186;SDS011;2107;52.306;10.484;2023-09-19T00:17:06;0.00;;;0.00;;
4186;SDS011;2107;52.306;10.484;2023-09-19T00:19:34;0.00;;;0.00;;
4186;SDS011;2107;52.306;10.484;2023-09-19T00:22:02;0.00;;;0.00;;
4186;SDS011;2107;52.306;10.484;2023-09-19T00:24:29;0.00;;;0.00;;
4186;SDS011;2107;52.306;10.484;2023-09-19T00:26:56;0.00;;;0.00;;
4186;SDS011;2107;52.306;10.484;2023-09-19T00:29:24;0.00;;;0.00;;
4186;SDS011;2107;52.306;10.484;2023-09-19T00:31:54;0.00;;;0.00;;
4186;SDS011;2107;52.306;10.484;2023-09-19T00:34:23;0.00;;;0.00;;
4186;SDS011;2107;52.306;10.484;2023-09-19T00:36:50;0.00;;;0.00;;
4186;SDS011;2107;52.306;10.484;2023-09-19T00:39:19;0.00;;;0.00;;
4186;SDS011;2107;52.306;10.484;2023-09-19T00:41:47;0.00;;;0.00;;
4186;SDS011;2107;52.306;10.484;2023-09-19T00:44:14;0.00;;;0.00;;
4186;SDS011;2107;52.306;10.484;2023-09-19T00:46:42;0.00;;;0.00;;
4186;SDS011;2107;52.306;10.484;2023-09-19T00:49:12;0.00;;;0.00;;
4186;SDS011;2107;52.306;10.484;2023-09-19T00:51:41;0.00;;;0.00;;
4186;SDS011;2107;52.306;10.484;2023-09-19T00:54:12;0.00;;;0.00;;
4186;SDS011;2107;52.306;10.484;2023-09-19T00:56:43;0.00;;;0.00;;
4186;SDS011;2107;52.306;10.484;2023-09-19T00:59:11;0.00;;;0.00;;
4186;SDS011;2107;52.306;10.484;2023-09-19T01:01:38;0.00;;;0.00;;
4186;SDS011;2107;52.306;10.484;2023-09-19T01:04:06;0.00;;;0.00;;
4186;SDS011;2107;52.306;10.484;2023-09-19T01:06:33;0.00;;;0.00;;
4186;SDS011;2107;52.306;10.484;2023-09-19T01:09:03;0.00;;;0.00;;
4186;SDS011;2107;52.306;10.484;2023-09-19T01:11:32;0.00;;;0.00;;
4186;SDS011;2107;52.306;10.484;2023-09-19T01:14:07;0.00;;;0.00;;
4186;SDS011;2107;52.306;10.484;2023-09-19T01:16:42;0.00;;;0.00;;
4186;SDS011;2107;52.306;10.484;2023-09-19T01:19:26;0.00;;;0.00;;
4186;SDS011;2107;52.306;10.484;2023-09-19T01:22:13;0.00;;;0.00;;
4186;SDS011;2107;52.306;10.484;2023-09-19T01:25:03;0.00;;;0.00;;
4186;SDS011;2107;52.306;10.484;2023-09-19T01:27:58;0.00;;;0.00;;
4186;SDS011;2107;52.306;10.484;2023-09-19T01:30:35;0.00;;;0.00;;
4186;SDS011;2107;52.306;10.484;2023-09-19T01:33:05;0.00;;;0.00;;
4186;SDS011;2107;52.306;10.484;2023-09-19T01:35:33;0.00;;;0.00;;
4186;SDS011;2107;52.306;10.484;2023-09-19T01:38:04;0.00;;;0.00;;
4186;SDS011;2107;52.306;10.484;2023-09-19T01:40:32;0.00;;;0.00;;
4186;SDS011;2107;52.306;10.484;2023-09-19T01:43:06;0.00;;;0.00;;
4186;SDS011;2107;52.306;10.484;2023-09-19T01:45:41;0.00;;;0.00;;
4186;SDS011;2107;52.306;10.484;2023-09-19T01:48:16;0.00;;;0.00;;
4186;SDS011;2107;52.306;10.484;2023-09-19T01:50:52;0.00;;;0.00;;
4186;SDS011;2107;52.306;10.484;2023-09-19T01:53:26;0.00;;;0.00;;
4186;SDS011;2107;52.306;10.484;2023-09-19T01:55:56;0.00;;;0.00;;
4186;SDS011;2107;52.306;10.484;2023-09-19T01:58:25;0.00;;;0.00;;
4186;SDS011;2107;52.306;10.484;2023-09-19T02:00:58;0.00;;;0.00;;
4186;SDS011;2107;52.306;10.484;2023-09-19T02:03:27;0.00;;;0.00;;
4186;SDS011;2107;52.306;10.484;2023-09-19T02:05:55;0.00;;;0.00;;
4186;SDS011;2107;52.306;10.484;2023-09-19T02:08:22;0.00;;;0.00;;
4186;SDS011;2107;52.306;10.484;2023-09-19T02:10:49;0.00;;;0.00;;
4186;SDS011;2107;52.306;10.484;2023-09-19T02:13:17;0.00;;;0.00;;
4186;SDS011;2107;52.306;10.484;2023-09-19T02:15:46;0.00;;;0.00;;
4186;SDS011;2107;52.306;10.484;2023-09-19T02:18:14;0.00;;;0.00;;
4186;SDS011;2107;52.306;10.484;2023-09-19T02:20:42;0.00;;;0.00;;
4186;SDS011;2107;52.306;10.484;2023-09-19T02:23:09;0.00;;;0.00;;
4186;SDS011;2107;52.306;10.484;2023-09-19T02:25:36;0.00;;;0.00;;
4186;SDS011;2107;52.306;10.484;2023-09-19T02:28:05;0.00;;;0.00;;
4186;SDS011;2107;52.306;10.484;2023-09-19T02:30:33;0.00;;;0.00;;
4186;SDS011;2107;52.306;10.484;2023-09-19T02:33:01;0.00;;;0.00;;
4186;SDS011;2107;52.306;10.484;2023-09-19T02:35:29;0.00;;;0.00;;
4186;SDS011;2107;52.306;10.484;2023-09-19T02:38:00;0.00;;;0.00;;
4186;SDS011;2107;52.306;10.484;2023-09-19T02:40:27;0.00;;;0.00;;
4186;SDS011;2107;52.306;10.484;2023-09-19T02:42:55;0.00;;;0.00;;
4186;SDS011;2107;52.306;10.484;2023-09-19T02:45:24;0.00;;;0.00;;
4186;SDS011;2107;52.306;10.484;2023-09-19T02:47:51;0.00;;;0.00;;
4186;SDS011;2107;52.306;10.484;2023-09-19T02:50:18;0.00;;;0.00;;
4186;SDS011;2107;52.306;10.484;2023-09-19T02:52:47;0.00;;;0.00;;
4186;SDS011;2107;52.306;10.484;2023-09-19T02:55:14;0.00;;;0.00;;
4186;SDS011;2107;52.306;10.484;2023-09-19T02:57:47;0.00;;;0.00;;
4186;SDS011;2107;52.306;10.484;2023-09-19T03:00:16;0.00;;;0.00;;
4186;SDS011;2107;52.306;10.484;2023-09-19T03:02:46;0.00;;;0.00;;
4186;SDS011;2107;52.306;10.484;2023-09-19T03:05:13;0.00;;;0.00;;
4186;SDS011;2107;52.306;10.484;2023-09-19T03:07:40;0.00;;;0.00;;
4186;SDS011;2107;52.306;10.484;2023-09-19T03:10:09;0.00;;;0.00;;
4186;SDS011;2107;52.306;10.484;2023-09-19T03:12:36;0.00;;;0.00;;
4186;SDS011;2107;52.306;10.484;2023-09-19T03:15:05;0.00;;;0.00;;
4186;SDS011;2107;52.306;10.484;2023-09-19T03:17:33;0.00;;;0.00;;
4186;SDS011;2107;52.306;10.484;2023-09-19T03:20:01;0.00;;;0.00;;
4186;SDS011;2107;52.306;10.484;2023-09-19T03:22:29;0.00;;;0.00;;
4186;SDS011;2107;52.306;10.484;2023-09-19T03:24:56;0.00;;;0.00;;
4186;SDS011;2107;52.306;10.484;2023-09-19T03:27:24;0.00;;;0.00;;
4186;SDS011;2107;52.306;10.484;2023-09-19T03:29:52;0.00;;;0.00;;
4186;SDS011;2107;52.306;10.484;2023-09-19T03:32:19;0.00;;;0.00;;
4186;SDS011;2107;52.306;10.484;2023-09-19T03:34:46;0.00;;;0.00;;
4186;SDS011;2107;52.306;10.484;2023-09-19T03:37:13;0.00;;;0.00;;
4186;SDS011;2107;52.306;10.484;2023-09-19T03:39:41;0.00;;;0.00;;
4186;SDS011;2107;52.306;10.484;2023-09-19T03:42:07;0.00;;;0.00;;
4186;SDS011;2107;52.306;10.484;2023-09-19T03:44:36;0.00;;;0.00;;
4186;SDS011;2107;52.306;10.484;2023-09-19T03:47:03;0.00;;;0.00;;
4186;SDS011;2107;52.306;10.484;2023-09-19T03:49:32;0.00;;;0.00;;
4186;SDS011;2107;52.306;10.484;2023-09-19T03:51:59;0.00;;;0.00;;
4186;SDS011;2107;52.306;10.484;2023-09-19T03:54:26;0.00;;;0.00;;
4186;SDS011;2107;52.306;10.484;2023-09-19T03:56:52;0.00;;;0.00;;
4186;SDS011;2107;52.306;10.484;2023-09-19T03:59:19;0.00;;;0.00;;
4186;SDS011;2107;52.306;10.484;2023-09-19T04:01:48;0.00;;;0.00;;
4186;SDS011;2107;52.306;10.484;2023-09-19T04:04:15;0.00;;;0.00;;
4186;SDS011;2107;52.306;10.484;2023-09-19T04:06:43;0.00;;;0.00;;
4186;SDS011;2107;52.306;10.484;2023-09-19T04:09:10;0.00;;;0.00;;
4186;SDS011;2107;52.306;10.484;2023-09-19T04:11:38;0.00;;;0.00;;
4186;SDS011;2107;52.306;10.484;2023-09-19T04:14:04;0.00;;;0.00;;
4186;SDS011;2107;52.306;10.484;2023-09-19T04:16:31;0.00;;;0.00;;
4186;SDS011;2107;52.306;10.484;2023-09-19T04:18:59;0.00;;;0.00;;
4186;SDS011;2107;52.306;10.484;2023-09-19T04:21:28;0.00;;;0.00;;
4186;SDS011;2107;52.306;10.484;2023-09-19T04:23:54;0.00;;;0.00;;
4186;SDS011;2107;52.306;10.484;2023-09-19T04:26:21;0.00;;;0.00;;
4186;SDS011;2107;52.306;10.484;2023-09-19T04:28:48;0.00;;;0.00;;
4186;SDS011;2107;52.306;10.484;2023-09-19T04:31:16;0.00;;;0.00;;
4186;SDS011;2107;52.306;10.484;2023-09-19T04:33:44;0.00;;;0.00;;
4186;SDS011;2107;52.306;10.484;2023-09-19T04:36:13;0.00;;;0.00;;
4186;SDS011;2107;52.306;10.484;2023-09-19T04:38:40;0.00;;;0.00;;
4186;SDS011;2107;52.306;10.484;2023-09-19T04:41:06;0.00;;;0.00;;
4186;SDS011;2107;52.306;10.484;2023-09-19T04:43:33;0.00;;;0.00;;
4186;SDS011;2107;52.306;10.484;2023-09-19T04:46:00;0.00;;;0.00;;
4186;SDS011;2107;52.306;10.484;2023-09-19T04:48:28;0.00;;;0.00;;
4186;SDS011;2107;52.306;10.484;2023-09-19T04:50:55;0.00;;;0.00;;
4186;SDS011;2107;52.306;10.484;2023-09-19T04:53:26;0.00;;;0.00;;
4186;SDS011;2107;52.306;10.484;2023-09-19T04:55:54;0.00;;;0.00;;
4186;SDS011;2107;52.306;10.484;2023-09-19T04:58:20;0.00;;;0.00;;
4186;SDS011;2107;52.306;10.484;2023-09-19T05:00:47;0.10;;;0.10;;
4186;SDS011;2107;52.306;10.484;2023-09-19T05:03:16;0.00;;;0.00;;
4186;SDS011;2107;52.306;10.484;2023-09-19T05:05:46;0.10;;;0.10;;
4186;SDS011;2107;52.306;10.484;2023-09-19T05:08:12;0.10;;;0.10;;
4186;SDS011;2107;52.306;10.484;2023-09-19T05:10:41;0.10;;;0.10;;
4186;SDS011;2107;52.306;10.484;2023-09-19T05:13:08;0.10;;;0.10;;
4186;SDS011;2107;52.306;10.484;2023-09-19T05:15:35;0.00;;;0.00;;
4186;SDS011;2107;52.306;10.484;2023-09-19T05:18:02;0.00;;;0.00;;
4186;SDS011;2107;52.306;10.484;2023-09-19T05:20:31;0.10;;;0.10;;
4186;SDS011;2107;52.306;10.484;2023-09-19T05:23:01;0.10;;;0.10;;
4186;SDS011;2107;52.306;10.484;2023-09-19T05:25:33;0.10;;;0.10;;
4186;SDS011;2107;52.306;10.484;2023-09-19T05:28:04;0.00;;;0.00;;
4186;SDS011;2107;52.306;10.484;2023-09-19T05:30:32;0.00;;;0.00;;
4186;SDS011;2107;52.306;10.484;2023-09-19T05:33:01;0.10;;;0.10;;
4186;SDS011;2107;52.306;10.484;2023-09-19T05:35:29;0.00;;;0.00;;
4186;SDS011;2107;52.306;10.484;2023-09-19T05:37:57;0.00;;;0.00;;
4186;SDS011;2107;52.306;10.484;2023-09-19T05:40:24;0.00;;;0.00;;
4186;SDS011;2107;52.306;10.484;2023-09-19T05:42:52;0.00;;;0.00;;
4186;SDS011;2107;52.306;10.484;2023-09-19T05:45:20;0.00;;;0.00;;
4186;SDS011;2107;52.306;10.484;2023-09-19T05:47:48;0.00;;;0.00;;
4186;SDS011;2107;52.306;10.484;2023-09-19T05:50:15;0.00;;;0.00;;
4186;SDS011;2107;52.306;10.484;2023-09-19T05:52:43;0.00;;;0.00;;
4186;SDS011;2107;52.306;10.484;2023-09-19T05:55:17;0.00;;;0.00;;
4186;SDS011;2107;52.306;10.484;2023-09-19T05:57:48;0.10;;;0.10;;
4186;SDS011;2107;52.306;10.484;2023-09-19T06:00:16;0.00;;;0.00;;
4186;SDS011;2107;52.306;10.484;2023-09-19T06:02:45;0.10;;;0.10;;
4186;SDS011;2107;52.306;10.484;2023-09-19T06:05:15;0.10;;;0.10;;
4186;SDS011;2107;52.306;10.484;2023-09-19T06:07:42;0.10;;;0.10;;
4186;SDS011;2107;52.306;10.484;2023-09-19T06:10:09;0.10;;;0.10;;
4186;SDS011;2107;52.306;10.484;2023-09-19T06:12:37;0.10;;;0.10;;
4186;SDS011;2107;52.306;10.484;2023-09-19T06:15:05;0.10;;;0.10;;
4186;SDS011;2107;52.306;10.484;2023-09-19T06:17:33;0.10;;;0.10;;
4186;SDS011;2107;52.306;10.484;2023-09-19T06:20:04;0.10;;;0.10;;
4186;SDS011;2107;52.306;10.484;2023-09-19T06:22:37;0.10;;;0.10;;
4186;SDS011;2107;52.306;10.484;2023-09-19T06:25:06;0.10;;;0.10;;
4186;SDS011;2107;52.306;10.484;2023-09-19T06:27:36;0.20;;;0.20;;
4186;SDS011;2107;52.306;10.484;2023-09-19T06:30:05;0.20;;;0.20;;
4186;SDS011;2107;52.306;10.484;2023-09-19T06:32:33;0.20;;;0.20;;
4186;SDS011;2107;52.306;10.484;2023-09-19T06:34:59;0.50;;;0.50;;
4186;SDS011;2107;52.306;10.484;2023-09-19T06:37:29;0.43;;;0.43;;
4186;SDS011;2107;52.306;10.484;2023-09-19T06:39:56;0.40;;;0.40;;
4186;SDS011;2107;52.306;10.484;2023-09-19T06:42:23;0.67;;;0.67;;
4186;SDS011;2107;52.306;10.484;2023-09-19T06:44:53;0.50;;;0.50;;
4186;SDS011;2107;52.306;10.484;2023-09-19T06:47:21;0.43;;;0.43;;
4186;SDS011;2107;52.306;10.484;2023-09-19T06:49:50;0.40;;;0.40;;
4186;SDS011;2107;52.306;10.484;2023-09-19T06:52:17;0.60;;;0.60;;
4186;SDS011;2107;52.306;10.484;2023-09-19T06:54:48;0.60;;;0.60;;
4186;SDS011;2107;52.306;10.484;2023-09-19T06:57:17;0.60;;;0.60;;
4186;SDS011;2107;52.306;10.484;2023-09-19T06:59:44;0.67;;;0.67;;
4186;SDS011;2107;52.306;10.484;2023-09-19T07:02:11;0.50;;;0.50;;
4186;SDS011;2107;52.306;10.484;2023-09-19T07:04:39;0.60;;;0.60;;
4186;SDS011;2107;52.306;10.484;2023-09-19T07:07:05;0.70;;;0.70;;
4186;SDS011;2107;52.306;10.484;2023-09-19T07:09:33;0.50;;;0.50;;
4186;SDS011;2107;52.306;10.484;2023-09-19T07:12:02;0.50;;;0.50;;
4186;SDS011;2107;52.306;10.484;2023-09-19T07:14:29;0.80;;;0.80;;
4186;SDS011;2107;52.306;10.484;2023-09-19T07:16:57;0.60;;;0.60;;
4186;SDS011;2107;52.306;10.484;2023-09-19T07:19:25;0.50;;;0.50;;
4186;SDS011;2107;52.306;10.484;2023-09-19T07:21:53;0.60;;;0.60;;
4186;SDS011;2107;52.306;10.484;2023-09-19T07:24:20;0.70;;;0.70;;
4186;SDS011;2107;52.306;10.484;2023-09-19T07:26:49;0.90;;;0.90;;
4186;SDS011;2107;52.306;10.484;2023-09-19T07:29:17;0.80;;;0.80;;
4186;SDS011;2107;52.306;10.484;2023-09-19T07:31:44;0.50;;;0.50;;
4186;SDS011;2107;52.306;10.484;2023-09-19T07:34:12;0.50;;;0.50;;
4186;SDS011;2107;52.306;10.484;2023-09-19T07:36:40;0.50;;;0.50;;
4186;SDS011;2107;52.306;10.484;2023-09-19T07:39:07;0.50;;;0.50;;
4186;SDS011;2107;52.306;10.484;2023-09-19T07:41:34;0.80;;;0.80;;
4186;SDS011;2107;52.306;10.484;2023-09-19T07:44:01;0.80;;;0.80;;
4186;SDS011;2107;52.306;10.484;2023-09-19T07:46:30;0.70;;;0.70;;
4186;SDS011;2107;52.306;10.484;2023-09-19T07:48:57;0.63;;;0.63;;
4186;SDS011;2107;52.306;10.484;2023-09-19T07:51:24;0.70;;;0.70;;
4186;SDS011;2107;52.306;10.484;2023-09-19T07:53:52;0.80;;;0.80;;
4186;SDS011;2107;52.306;10.484;2023-09-19T07:56:19;0.70;;;0.70;;
4186;SDS011;2107;52.306;10.484;2023-09-19T07:58:47;0.90;;;0.90;;
4186;SDS011;2107;52.306;10.484;2023-09-19T08:01:14;0.90;;;0.90;;
4186;SDS011;2107;52.306;10.484;2023-09-19T08:03:42;0.90;;;0.90;;
4186;SDS011;2107;52.306;10.484;2023-09-19T08:06:10;1.00;;;1.00;;
4186;SDS011;2107;52.306;10.484;2023-09-19T08:08:39;0.90;;;0.90;;
4186;SDS011;2107;52.306;10.484;2023-09-19T08:11:06;0.80;;;0.80;;
4186;SDS011;2107;52.306;10.484;2023-09-19T08:13:36;0.70;;;0.70;;
4186;SDS011;2107;52.306;10.484;2023-09-19T08:16:06;1.10;;;1.10;;
4186;SDS011;2107;52.306;10.484;2023-09-19T08:18:33;0.80;;;0.80;;
4186;SDS011;2107;52.306;10.484;2023-09-19T08:21:01;0.80;;;0.80;;
4186;SDS011;2107;52.306;10.484;2023-09-19T08:23:28;0.80;;;0.80;;
4186;SDS011;2107;52.306;10.484;2023-09-19T08:25:57;0.80;;;0.80;;
4186;SDS011;2107;52.306;10.484;2023-09-19T08:28:27;0.90;;;0.90;;
4186;SDS011;2107;52.306;10.484;2023-09-19T08:30:55;1.00;;;1.00;;
4186;SDS011;2107;52.306;10.484;2023-09-19T08:33:23;1.10;;;1.10;;
4186;SDS011;2107;52.306;10.484;2023-09-19T08:35:50;0.97;;;0.97;;
4186;SDS011;2107;52.306;10.484;2023-09-19T08:38:18;0.90;;;0.90;;
4186;SDS011;2107;52.306;10.484;2023-09-19T08:40:45;1.17;;;1.17;;
4186;SDS011;2107;52.306;10.484;2023-09-19T08:43:12;0.63;;;0.63;;
4186;SDS011;2107;52.306;10.484;2023-09-19T08:45:39;0.70;;;0.70;;
4186;SDS011;2107;52.306;10.484;2023-09-19T08:48:11;0.60;;;0.60;;
4186;SDS011;2107;52.306;10.484;2023-09-19T08:50:49;0.60;;;0.60;;
4186;SDS011;2107;52.306;10.484;2023-09-19T08:53:21;0.70;;;0.70;;
4186;SDS011;2107;52.306;10.484;2023-09-19T08:55:54;0.60;;;0.60;;
4186;SDS011;2107;52.306;10.484;2023-09-19T08:58:23;0.50;;;0.50;;
4186;SDS011;2107;52.306;10.484;2023-09-19T09:00:54;0.70;;;0.70;;
4186;SDS011;2107;52.306;10.484;2023-09-19T09:03:22;0.50;;;0.50;;
4186;SDS011;2107;52.306;10.484;2023-09-19T09:05:50;0.70;;;0.70;;
4186;SDS011;2107;52.306;10.484;2023-09-19T09:08:18;0.90;;;0.90;;
4186;SDS011;2107;52.306;10.484;2023-09-19T09:10:47;1.00;;;1.00;;
4186;SDS011;2107;52.306;10.484;2023-09-19T09:13:15;1.20;;;1.20;;
4186;SDS011;2107;52.306;10.484;2023-09-19T09:15:44;0.90;;;0.90;;
4186;SDS011;2107;52.306;10.484;2023-09-19T09:18:10;0.90;;;0.90;;
4186;SDS011;2107;52.306;10.484;2023-09-19T09:20:38;0.90;;;0.90;;
4186;SDS011;2107;52.306;10.484;2023-09-19T09:23:06;0.90;;;0.90;;
4186;SDS011;2107;52.306;10.484;2023-09-19T09:25:51;0.90;;;0.90;;
4186;SDS011;2107;52.306;10.484;2023-09-19T09:28:22;1.00;;;1.00;;
4186;SDS011;2107;52.306;10.484;2023-09-19T09:30:49;0.90;;;0.90;;
4186;SDS011;2107;52.306;10.484;2023-09-19T09:33:17;0.87;;;0.87;;
4186;SDS011;2107;52.306;10.484;2023-09-19T09:35:47;0.90;;;0.90;;
4186;SDS011;2107;52.306;10.484;2023-09-19T09:38:17;0.70;;;0.70;;
4186;SDS011;2107;52.306;10.484;2023-09-19T09:40:48;0.90;;;0.90;;
4186;SDS011;2107;52.306;10.484;2023-09-19T09:43:32;1.10;;;1.10;;
4186;SDS011;2107;52.306;10.484;2023-09-19T09:46:11;1.10;;;1.10;;
4186;SDS011;2107;52.306;10.484;2023-09-19T09:48:56;1.30;;;1.30;;
4186;SDS011;2107;52.306;10.484;2023-09-19T09:51:45;1.10;;;1.10;;
4186;SDS011;2107;52.306;10.484;2023-09-19T09:54:22;1.10;;;1.10;;
4186;SDS011;2107;52.306;10.484;2023-09-19T09:56:52;1.10;;;1.10;;
4186;SDS011;2107;52.306;10.484;2023-09-19T09:59:27;0.90;;;0.90;;
4186;SDS011;2107;52.306;10.484;2023-09-19T10:02:12;1.10;;;1.10;;
4186;SDS011;2107;52.306;10.484;2023-09-19T10:04:45;1.33;;;1.33;;
4186;SDS011;2107;52.306;10.484;2023-09-19T10:07:27;0.90;;;0.90;;
4186;SDS011;2107;52.306;10.484;2023-09-19T10:09:58;1.20;;;1.20;;
4186;SDS011;2107;52.306;10.484;2023-09-19T10:12:34;0.90;;;0.90;;
4186;SDS011;2107;52.306;10.484;2023-09-19T10:15:06;1.50;;;1.50;;
4186;SDS011;2107;52.306;10.484;2023-09-19T10:17:36;1.03;;;1.03;;
4186;SDS011;2107;52.306;10.484;2023-09-19T10:20:08;1.10;;;1.10;;
4186;SDS011;2107;52.306;10.484;2023-09-19T10:22:47;0.70;;;0.70;;
4186;SDS011;2107;52.306;10.484;2023-09-19T10:25:24;1.17;;;1.17;;
4186;SDS011;2107;52.306;10.484;2023-09-19T10:27:53;1.00;;;1.00;;
4186;SDS011;2107;52.306;10.484;2023-09-19T10:30:24;0.77;;;0.77;;
4186;SDS011;2107;52.306;10.484;2023-09-19T10:32:55;1.20;;;1.20;;
4186;SDS011;2107;52.306;10.484;2023-09-19T10:35:25;1.10;;;1.10;;
4186;SDS011;2107;52.306;10.484;2023-09-19T10:37:54;1.40;;;1.40;;
4186;SDS011;2107;52.306;10.484;2023-09-19T10:40:23;1.00;;;1.00;;
4186;SDS011;2107;52.306;10.484;2023-09-19T10:42:57;0.90;;;0.90;;
4186;SDS011;2107;52.306;10.484;2023-09-19T10:45:31;1.00;;;1.00;;
4186;SDS011;2107;52.306;10.484;2023-09-19T10:47:58;0.90;;;0.90;;
4186;SDS011;2107;52.306;10.484;2023-09-19T10:50:27;1.00;;;1.00;;
4186;SDS011;2107;52.306;10.484;2023-09-19T10:53:03;0.90;;;0.90;;
4186;SDS011;2107;52.306;10.484;2023-09-19T10:55:33;0.90;;;0.90;;
4186;SDS011;2107;52.306;10.484;2023-09-19T10:58:01;0.80;;;0.80;;
4186;SDS011;2107;52.306;10.484;2023-09-19T11:03:36;1.00;;;1.00;;
4186;SDS011;2107;52.306;10.484;2023-09-19T11:06:09;1.10;;;1.10;;
4186;SDS011;2107;52.306;10.484;2023-09-19T11:11:47;1.00;;;1.00;;
4186;SDS011;2107;52.306;10.484;2023-09-19T11:14:41;1.10;;;1.10;;
4186;SDS011;2107;52.306;10.484;2023-09-19T11:20:16;1.00;;;1.00;;
4186;SDS011;2107;52.306;10.484;2023-09-19T11:25:49;0.80;;;0.80;;
4186;SDS011;2107;52.306;10.484;2023-09-19T11:28:31;1.20;;;1.20;;
4186;SDS011;2107;52.306;10.484;2023-09-19T11:30:59;1.13;;;1.13;;
4186;SDS011;2107;52.306;10.484;2023-09-19T11:33:47;1.50;;;1.50;;
4186;SDS011;2107;52.306;10.484;2023-09-19T11:36:15;1.20;;;1.20;;
4186;SDS011;2107;52.306;10.484;2023-09-19T11:38:57;1.03;;;1.03;;
4186;SDS011;2107;52.306;10.484;2023-09-19T11:41:39;1.10;;;1.10;;
4186;SDS011;2107;52.306;10.484;2023-09-19T11:46:58;1.20;;;1.20;;
4186;SDS011;2107;52.306;10.484;2023-09-19T11:49:30;1.10;;;1.10;;
4186;SDS011;2107;52.306;10.484;2023-09-19T11:51:58;1.20;;;1.20;;
4186;SDS011;2107;52.306;10.484;2023-09-19T11:54:29;1.00;;;1.00;;
4186;SDS011;2107;52.306;10.484;2023-09-19T11:56:57;1.40;;;1.40;;
4186;SDS011;2107;52.306;10.484;2023-09-19T11:59:26;1.40;;;1.40;;
4186;SDS011;2107;52.306;10.484;2023-09-19T12:01:55;1.17;;;1.17;;
4186;SDS011;2107;52.306;10.484;2023-09-19T12:04:37;1.30;;;1.30;;
4186;SDS011;2107;52.306;10.484;2023-09-19T12:07:06;1.20;;;1.20;;
4186;SDS011;2107;52.306;10.484;2023-09-19T12:09:39;1.30;;;1.30;;
4186;SDS011;2107;52.306;10.484;2023-09-19T12:12:09;1.30;;;1.30;;
4186;SDS011;2107;52.306;10.484;2023-09-19T12:14:37;1.00;;;1.00;;
4186;SDS011;2107;52.306;10.484;2023-09-19T12:17:07;1.10;;;1.10;;
4186;SDS011;2107;52.306;10.484;2023-09-19T12:19:34;0.90;;;0.90;;
4186;SDS011;2107;52.306;10.484;2023-09-19T12:22:02;0.80;;;0.80;;
4186;SDS011;2107;52.306;10.484;2023-09-19T12:24:31;1.03;;;1.03;;
4186;SDS011;2107;52.306;10.484;2023-09-19T12:27:01;1.10;;;1.10;;
4186;SDS011;2107;52.306;10.484;2023-09-19T12:29:31;1.00;;;1.00;;
4186;SDS011;2107;52.306;10.484;2023-09-19T12:31:59;1.13;;;1.13;;
4186;SDS011;2107;52.306;10.484;2023-09-19T12:34:29;1.30;;;1.30;;
4186;SDS011;2107;52.306;10.484;2023-09-19T12:37:05;1.10;;;1.10;;
4186;SDS011;2107;52.306;10.484;2023-09-19T12:39:37;1.20;;;1.20;;
4186;SDS011;2107;52.306;10.484;2023-09-19T12:42:08;1.00;;;1.00;;
4186;SDS011;2107;52.306;10.484;2023-09-19T12:44:39;1.20;;;1.20;;
4186;SDS011;2107;52.306;10.484;2023-09-19T12:47:09;1.27;;;1.27;;
4186;SDS011;2107;52.306;10.484;2023-09-19T12:52:40;1.30;;;1.30;;
4186;SDS011;2107;52.306;10.484;2023-09-19T12:55:19;1.40;;;1.40;;
4186;SDS011;2107;52.306;10.484;2023-09-19T12:57:57;1.57;;;1.57;;
4186;SDS011;2107;52.306;10.484;2023-09-19T13:00:33;1.40;;;1.40;;
4186;SDS011;2107;52.306;10.484;2023-09-19T13:03:13;1.40;;;1.40;;
4186;SDS011;2107;52.306;10.484;2023-09-19T13:05:47;1.30;;;1.30;;
4186;SDS011;2107;52.306;10.484;2023-09-19T13:08:21;1.30;;;1.30;;
4186;SDS011;2107;52.306;10.484;2023-09-19T13:11:04;1.20;;;1.20;;
4186;SDS011;2107;52.306;10.484;2023-09-19T13:13:37;1.20;;;1.20;;
4186;SDS011;2107;52.306;10.484;2023-09-19T13:16:06;1.30;;;1.30;;
4186;SDS011;2107;52.306;10.484;2023-09-19T13:18:44;1.13;;;1.13;;
4186;SDS011;2107;52.306;10.484;2023-09-19T13:21:12;1.20;;;1.20;;
4186;SDS011;2107;52.306;10.484;2023-09-19T13:23:50;1.23;;;1.23;;
4186;SDS011;2107;52.306;10.484;2023-09-19T13:26:18;1.10;;;1.10;;
4186;SDS011;2107;52.306;10.484;2023-09-19T13:28:45;1.43;;;1.43;;
4186;SDS011;2107;52.306;10.484;2023-09-19T13:31:13;1.00;;;1.00;;
4186;SDS011;2107;52.306;10.484;2023-09-19T13:33:43;1.40;;;1.40;;
4186;SDS011;2107;52.306;10.484;2023-09-19T13:36:10;1.30;;;1.30;;
4186;SDS011;2107;52.306;10.484;2023-09-19T13:38:38;1.50;;;1.50;;
4186;SDS011;2107;52.306;10.484;2023-09-19T13:41:06;1.47;;;1.47;;
4186;SDS011;2107;52.306;10.484;2023-09-19T13:43:35;1.50;;;1.50;;
4186;SDS011;2107;52.306;10.484;2023-09-19T13:46:02;1.60;;;1.60;;
4186;SDS011;2107;52.306;10.484;2023-09-19T13:48:28;1.20;;;1.20;;
4186;SDS011;2107;52.306;10.484;2023-09-19T13:50:56;1.10;;;1.10;;
4186;SDS011;2107;52.306;10.484;2023-09-19T13:53:22;1.30;;;1.30;;
4186;SDS011;2107;52.306;10.484;2023-09-19T13:55:51;1.10;;;1.10;;
4186;SDS011;2107;52.306;10.484;2023-09-19T13:58:19;1.13;;;1.13;;
4186;SDS011;2107;52.306;10.484;2023-09-19T14:00:49;1.30;;;1.30;;
4186;SDS011;2107;52.306;10.484;2023-09-19T14:03:16;1.10;;;1.10;;
4186;SDS011;2107;52.306;10.484;2023-09-19T14:05:45;1.00;;;1.00;;
4186;SDS011;2107;52.306;10.484;2023-09-19T14:08:14;1.20;;;1.20;;
4186;SDS011;2107;52.306;10.484;2023-09-19T14:10:40;1.20;;;1.20;;
4186;SDS011;2107;52.306;10.484;2023-09-19T14:13:07;1.37;;;1.37;;
4186;SDS011;2107;52.306;10.484;2023-09-19T14:15:37;1.70;;;1.70;;
4186;SDS011;2107;52.306;10.484;2023-09-19T14:18:04;1.50;;;1.50;;
4186;SDS011;2107;52.306;10.484;2023-09-19T14:20:31;1.20;;;1.20;;
4186;SDS011;2107;52.306;10.484;2023-09-19T14:22:58;1.60;;;1.60;;
4186;SDS011;2107;52.306;10.484;2023-09-19T14:25:25;1.50;;;1.50;;
4186;SDS011;2107;52.306;10.484;2023-09-19T14:27:52;1.60;;;1.60;;
4186;SDS011;2107;52.306;10.484;2023-09-19T14:30:19;1.60;;;1.60;;
4186;SDS011;2107;52.306;10.484;2023-09-19T14:32:47;2.00;;;2.00;;
4186;SDS011;2107;52.306;10.484;2023-09-19T14:35:14;1.90;;;1.90;;
4186;SDS011;2107;52.306;10.484;2023-09-19T14:37:41;1.60;;;1.60;;
4186;SDS011;2107;52.306;10.484;2023-09-19T14:40:08;1.60;;;1.60;;
4186;SDS011;2107;52.306;10.484;2023-09-19T14:42:38;1.60;;;1.60;;
4186;SDS011;2107;52.306;10.484;2023-09-19T14:45:06;1.33;;;1.33;;
4186;SDS011;2107;52.306;10.484;2023-09-19T14:47:34;1.50;;;1.50;;
4186;SDS011;2107;52.306;10.484;2023-09-19T14:50:03;1.50;;;1.50;;
4186;SDS011;2107;52.306;10.484;2023-09-19T14:52:31;1.40;;;1.40;;
4186;SDS011;2107;52.306;10.484;2023-09-19T14:54:58;1.40;;;1.40;;
4186;SDS011;2107;52.306;10.484;2023-09-19T14:57:26;1.00;;;1.00;;
4186;SDS011;2107;52.306;10.484;2023-09-19T14:59:54;1.00;;;1.00;;
4186;SDS011;2107;52.306;10.484;2023-09-19T15:02:21;1.20;;;1.20;;
4186;SDS011;2107;52.306;10.484;2023-09-19T15:04:48;1.00;;;1.00;;
4186;SDS011;2107;52.306;10.484;2023-09-19T15:07:17;1.00;;;1.00;;
4186;SDS011;2107;52.306;10.484;2023-09-19T15:09:44;0.93;;;0.93;;
4186;SDS011;2107;52.306;10.484;2023-09-19T15:12:12;1.20;;;1.20;;
4186;SDS011;2107;52.306;10.484;2023-09-19T15:14:40;1.50;;;1.50;;
4186;SDS011;2107;52.306;10.484;2023-09-19T15:17:07;1.40;;;1.40;;
4186;SDS011;2107;52.306;10.484;2023-09-19T15:19:33;1.20;;;1.20;;
4186;SDS011;2107;52.306;10.484;2023-09-19T15:22:02;1.10;;;1.10;;
4186;SDS011;2107;52.306;10.484;2023-09-19T15:24:31;1.30;;;1.30;;
4186;SDS011;2107;52.306;10.484;2023-09-19T15:26:58;1.30;;;1.30;;
4186;SDS011;2107;52.306;10.484;2023-09-19T15:29:25;1.50;;;1.50;;
4186;SDS011;2107;52.306;10.484;2023-09-19T15:31:52;1.30;;;1.30;;
4186;SDS011;2107;52.306;10.484;2023-09-19T15:34:22;1.30;;;1.30;;